createdAt,value
2022-08-02T00:00:03.057Z,20.06
2022-08-02T00:05:27.799Z,20.05
2022-08-02T00:10:31.864Z,20.03
2022-08-02T00:15:34.855Z,19.99
2022-08-02T00:20:39.735Z,19.99
2022-08-02T00:25:54.803Z,20.06
2022-08-02T00:30:59.285Z,19.97
2022-08-02T00:36:04.509Z,19.96
2022-08-02T00:41:14.165Z,19.97
2022-08-02T00:46:20.002Z,19.96
2022-08-02T00:51:24.761Z,19.85
2022-08-02T00:56:27.960Z,19.73
2022-08-02T01:01:55.953Z,19.73
2022-08-02T01:07:12.820Z,19.76
2022-08-02T01:12:17.530Z,19.81
2022-08-02T01:17:28.115Z,19.70
2022-08-02T01:23:02.959Z,19.56
2022-08-02T01:28:28.025Z,19.47
2022-08-02T01:33:36.478Z,19.38
2022-08-02T01:38:42.857Z,19.44
2022-08-02T01:43:50.114Z,19.39
2022-08-02T01:48:55.916Z,19.23
2022-08-02T01:53:59.458Z,19.20
2022-08-02T01:59:06.320Z,19.23
2022-08-02T02:04:10.391Z,19.32
2022-08-02T02:09:15.817Z,19.30
2022-08-02T02:14:25.647Z,19.21
2022-08-02T02:19:39.064Z,19.03
2022-08-02T02:24:42.346Z,19.00
2022-08-02T02:29:51.144Z,18.95
2022-08-02T02:34:56.190Z,19.07
2022-08-02T02:40:00.277Z,19.06
2022-08-02T02:45:06.642Z,19.08
2022-08-02T02:50:11.321Z,19.09
2022-08-02T02:55:15.744Z,19.07
2022-08-02T03:00:40.797Z,19.02
2022-08-02T03:05:44.238Z,19.07
2022-08-02T03:10:48.522Z,19.18
2022-08-02T03:15:54.465Z,19.14
2022-08-02T03:21:00.948Z,19.09
2022-08-02T03:26:04.451Z,19.10
2022-08-02T03:31:09.361Z,19.11
2022-08-02T03:36:15.699Z,19.12
2022-08-02T03:41:21.251Z,19.17
2022-08-02T03:46:26.512Z,19.30
2022-08-02T03:51:29.739Z,19.36
2022-08-02T03:56:33.207Z,19.39
2022-08-02T04:01:38.311Z,19.37
2022-08-02T04:06:41.908Z,19.52
2022-08-02T04:11:45.611Z,19.52
2022-08-02T04:16:54.090Z,19.71
2022-08-02T04:22:00.346Z,19.85
2022-08-02T04:27:19.204Z,19.90
2022-08-02T04:32:25.564Z,20.03
2022-08-02T04:37:29.074Z,20.20
2022-08-02T04:42:32.322Z,20.26
2022-08-02T04:48:01.944Z,20.39
2022-08-02T04:53:00.550Z,20.43
2022-08-02T04:58:18.360Z,20.44
2022-08-02T05:03:28.806Z,20.40
2022-08-02T05:08:32.441Z,20.34
2022-08-02T05:13:35.665Z,20.39
2022-08-02T05:19:00.481Z,20.55
2022-08-02T05:24:04.846Z,20.80
2022-08-02T05:29:08.029Z,20.95
2022-08-02T05:34:13.010Z,21.28
2022-08-02T05:39:18.769Z,21.47
2022-08-02T05:44:22.602Z,21.84
2022-08-02T05:49:27.274Z,22.37
2022-08-02T05:54:40.522Z,22.79
2022-08-02T05:59:53.818Z,22.97
2022-08-02T06:05:05.092Z,23.13
2022-08-02T06:10:09.808Z,23.03
2022-08-02T06:15:14.585Z,23.23
2022-08-02T06:20:21.349Z,23.53
2022-08-02T06:25:50.261Z,23.36
2022-08-02T06:30:48.665Z,23.64
2022-08-02T06:36:02.359Z,23.79
2022-08-02T06:41:09.139Z,23.65
2022-08-02T06:46:38.045Z,23.83
2022-08-02T06:51:39.664Z,24.05
2022-08-02T06:56:42.840Z,24.12
2022-08-02T07:01:45.922Z,24.31
2022-08-02T07:06:50.704Z,24.49
2022-08-02T07:11:53.866Z,24.40
2022-08-02T07:16:56.945Z,24.71
2022-08-02T07:22:02.448Z,24.62
2022-08-02T07:27:13.786Z,24.57
2022-08-02T07:32:17.775Z,25.01
2022-08-02T07:37:52.830Z,24.84
2022-08-02T07:42:47.772Z,24.62
2022-08-02T07:47:51.558Z,24.57
2022-08-02T07:52:57.725Z,24.84
2022-08-02T07:58:01.446Z,25.23
2022-08-02T08:03:04.540Z,24.86
2022-08-02T08:08:15.249Z,24.74
2022-08-02T08:13:20.501Z,24.88
2022-08-02T08:18:23.680Z,25.30
2022-08-02T08:23:28.936Z,25.32
2022-08-02T08:28:32.196Z,25.10
2022-08-02T08:33:35.341Z,25.37
2022-08-02T08:38:40.024Z,25.80
2022-08-02T08:43:43.125Z,26.06
2022-08-02T08:48:50.246Z,25.83
2022-08-02T08:53:57.192Z,25.60
2022-08-02T08:59:00.926Z,25.75
2022-08-02T09:04:03.947Z,25.88
2022-08-02T09:09:09.023Z,25.72
2022-08-02T09:14:12.317Z,25.72
2022-08-02T09:19:20.709Z,26.04
2022-08-02T09:24:25.643Z,26.12
2022-08-02T09:29:58.901Z,26.38
2022-08-02T09:35:00.066Z,25.37
2022-08-02T09:40:07.216Z,26.12
2022-08-02T09:45:11.094Z,26.18
2022-08-02T09:50:15.185Z,26.09
2022-08-02T09:55:20.501Z,26.47
2022-08-02T10:00:43.378Z,26.65
2022-08-02T10:05:55.732Z,26.49
2022-08-02T10:11:01.890Z,26.67
2022-08-02T10:16:07.366Z,26.93
2022-08-02T10:21:16.431Z,27.31
2022-08-02T10:26:21.786Z,27.21
2022-08-02T10:31:28.107Z,27.28
2022-08-02T10:36:33.606Z,26.91
2022-08-02T10:41:46.952Z,27.08
2022-08-02T10:46:50.293Z,27.17
2022-08-02T10:52:06.292Z,27.30
2022-08-02T10:57:27.431Z,27.05
2022-08-02T11:02:37.318Z,26.97
2022-08-02T11:07:47.530Z,26.93
2022-08-02T11:13:12.045Z,27.17
2022-08-02T11:18:15.125Z,27.36
2022-08-02T11:23:44.897Z,27.31
2022-08-02T11:28:51.783Z,26.87
2022-08-02T11:33:55.268Z,26.90
2022-08-02T11:39:09.902Z,26.95
2022-08-02T11:44:14.449Z,26.70
2022-08-02T11:49:18.945Z,26.89
2022-08-02T11:54:28.114Z,26.84
2022-08-02T11:59:32.907Z,26.98
2022-08-02T12:04:37.157Z,26.97
2022-08-02T12:09:41.721Z,27.44
2022-08-02T12:14:46.794Z,27.26
2022-08-02T12:19:49.783Z,26.80
2022-08-02T12:24:54.372Z,26.45
2022-08-02T12:30:07.394Z,26.47
2022-08-02T12:35:12.584Z,27.06
2022-08-02T12:40:24.989Z,27.31
2022-08-02T12:45:40.804Z,27.57
2022-08-02T12:50:45.743Z,27.19
2022-08-02T12:56:00.954Z,26.46
2022-08-02T13:01:07.762Z,26.28
2022-08-02T13:06:39.458Z,26.22
2022-08-02T13:11:33.933Z,26.22
2022-08-02T13:16:38.372Z,26.30
2022-08-02T13:22:02.065Z,26.16
2022-08-02T13:27:07.780Z,26.23
2022-08-02T13:32:14.075Z,26.15
2022-08-02T13:37:17.914Z,26.27
2022-08-02T13:42:21.473Z,26.16
2022-08-02T13:47:35.831Z,26.07
2022-08-02T13:52:39.094Z,26.12
2022-08-02T13:57:42.288Z,26.26
2022-08-02T14:02:46.851Z,26.48
2022-08-02T14:07:49.880Z,26.80
2022-08-02T14:12:56.415Z,27.01
2022-08-02T14:18:01.469Z,26.83
2022-08-02T14:23:04.486Z,27.21
2022-08-02T14:28:07.582Z,27.06
2022-08-02T14:33:12.137Z,27.06
2022-08-02T14:38:15.297Z,26.94
2022-08-02T14:43:36.957Z,26.67
2022-08-02T14:48:41.697Z,26.60
2022-08-02T14:53:49.532Z,26.67
2022-08-02T14:59:06.345Z,26.62
2022-08-02T15:04:10.872Z,26.58
2022-08-02T15:09:13.872Z,26.22
2022-08-02T15:14:20.523Z,26.11
2022-08-02T15:19:56.480Z,26.01
2022-08-02T15:24:52.861Z,25.92
2022-08-02T15:30:00.731Z,26.02
2022-08-02T15:35:06.979Z,26.50
2022-08-02T15:40:11.167Z,26.86
2022-08-02T15:45:15.719Z,26.99
2022-08-02T15:50:21.258Z,26.91
2022-08-02T15:55:24.300Z,26.60
2022-08-02T16:00:30.131Z,26.37
2022-08-02T16:05:35.196Z,26.32
2022-08-02T16:10:38.403Z,26.15
2022-08-02T16:15:41.687Z,26.04
2022-08-02T16:20:46.376Z,25.53
2022-08-02T16:25:49.586Z,25.37
2022-08-02T16:31:04.975Z,25.39
2022-08-02T16:36:16.088Z,25.40
2022-08-02T16:41:23.411Z,25.51
2022-08-02T16:46:47.376Z,25.60
2022-08-02T16:51:56.032Z,25.66
2022-08-02T16:56:58.850Z,25.77
2022-08-02T17:02:15.166Z,25.87
2022-08-02T17:08:07.318Z,26.04
2022-08-02T17:12:51.400Z,25.79
2022-08-02T17:17:54.723Z,25.86
2022-08-02T17:23:00.559Z,25.73
2022-08-02T17:28:04.177Z,25.54
2022-08-02T17:33:07.269Z,25.43
2022-08-02T17:38:12.190Z,25.29
2022-08-02T17:43:21.050Z,25.07
2022-08-02T17:48:29.284Z,24.92
2022-08-02T17:53:41.190Z,24.78
2022-08-02T17:58:53.791Z,24.61
2022-08-02T18:03:57.241Z,24.39
2022-08-02T18:09:03.236Z,24.16
2022-08-02T18:14:07.100Z,23.99
2022-08-02T18:19:16.938Z,23.86
2022-08-02T18:24:24.442Z,23.71
2022-08-02T18:29:30.220Z,23.64
2022-08-02T18:34:47.587Z,23.57
2022-08-02T18:39:52.533Z,23.50
2022-08-02T18:44:55.513Z,23.39
2022-08-02T18:49:59.947Z,23.17
2022-08-02T18:55:10.345Z,23.05
2022-08-02T19:00:25.590Z,22.88
2022-08-02T19:05:52.113Z,22.76
2022-08-02T19:10:56.065Z,22.65
2022-08-02T19:15:59.584Z,22.54
2022-08-02T19:21:05.489Z,22.41
2022-08-02T19:26:10.726Z,22.29
2022-08-02T19:31:13.950Z,22.09
2022-08-02T19:36:18.380Z,21.99
2022-08-02T19:41:23.222Z,21.87
2022-08-02T19:46:26.341Z,21.72
2022-08-02T19:51:49.491Z,21.51
2022-08-02T19:56:57.595Z,21.38
2022-08-02T20:02:01.333Z,21.27
2022-08-02T20:07:05.153Z,21.15
2022-08-02T20:12:11.439Z,21.05
2022-08-02T20:17:15.161Z,20.95
2022-08-02T20:22:18.691Z,20.87
2022-08-02T20:27:28.455Z,20.65
2022-08-02T20:32:33.287Z,20.64
2022-08-02T20:38:00.812Z,20.55
2022-08-02T20:43:01.532Z,20.48
2022-08-02T20:48:06.971Z,20.40
2022-08-02T20:53:23.281Z,20.30
2022-08-02T20:58:31.070Z,20.19
2022-08-02T21:03:40.177Z,20.13
2022-08-02T21:14:09.234Z,20.12
2022-08-02T21:19:12.608Z,19.99
2022-08-02T21:24:15.686Z,19.92
2022-08-02T21:29:20.322Z,19.83
2022-08-02T21:34:27.282Z,19.71
2022-08-02T21:39:32.542Z,19.66
2022-08-02T21:44:37.157Z,19.55
2022-08-02T21:50:13.802Z,19.41
2022-08-02T21:55:07.733Z,19.31
2022-08-02T22:00:28.355Z,19.27
2022-08-02T22:05:37.195Z,19.22
2022-08-02T22:10:58.998Z,19.14
2022-08-02T22:16:07.887Z,19.06
2022-08-02T22:21:14.149Z,19.00
2022-08-02T22:26:20.203Z,18.80
2022-08-02T22:31:41.005Z,18.65
2022-08-02T22:36:44.989Z,18.68
2022-08-02T22:42:05.470Z,18.69
2022-08-02T22:47:14.675Z,18.80
2022-08-02T22:52:20.228Z,18.80
2022-08-02T22:57:30.538Z,18.82
2022-08-02T22:59:12.562Z,20.19
2022-08-02T23:02:36.038Z,18.77
2022-08-02T23:07:41.312Z,18.53
2022-08-02T23:12:44.647Z,18.49
2022-08-02T23:18:07.664Z,18.34
2022-08-02T23:23:11.651Z,18.41
2022-08-02T23:28:14.832Z,18.30
2022-08-02T23:33:19.190Z,18.19
2022-08-02T23:38:22.161Z,18.02
2022-08-02T23:43:25.230Z,18.02
2022-08-02T23:48:30.398Z,18.10
2022-08-02T23:53:33.461Z,18.10
2022-08-02T23:58:36.594Z,18.03
